sensor_id;sensor_type;location;lat;lon;timestamp;P1;durP1;ratioP1;P2;durP2;ratioP2
2480;SDS011;57396;48.742;9.128;2023-12-14T00:01:27;1.83;;;1.60;;
2480;SDS011;57396;48.742;9.128;2023-12-14T00:03:52;3.30;;;1.70;;
2480;SDS011;57396;48.742;9.128;2023-12-14T00:06:17;2.10;;;1.43;;
2480;SDS011;57396;48.742;9.128;2023-12-14T00:08:43;3.87;;;1.63;;
2480;SDS011;57396;48.742;9.128;2023-12-14T00:11:09;2.30;;;1.80;;
2480;SDS011;57396;48.742;9.128;2023-12-14T00:13:36;2.57;;;2.10;;
2480;SDS011;57396;48.742;9.128;2023-12-14T00:16:02;2.30;;;1.60;;
2480;SDS011;57396;48.742;9.128;2023-12-14T00:18:27;2.83;;;1.90;;
2480;SDS011;57396;48.742;9.128;2023-12-14T00:20:53;3.73;;;2.10;;
2480;SDS011;57396;48.742;9.128;2023-12-14T00:23:19;2.70;;;1.90;;
2480;SDS011;57396;48.742;9.128;2023-12-14T00:25:45;4.43;;;2.73;;
2480;SDS011;57396;48.742;9.128;2023-12-14T00:28:10;4.00;;;2.30;;
2480;SDS011;57396;48.742;9.128;2023-12-14T00:30:36;2.47;;;2.00;;
2480;SDS011;57396;48.742;9.128;2023-12-14T00:33:01;3.57;;;2.00;;
2480;SDS011;57396;48.742;9.128;2023-12-14T00:35:27;3.00;;;2.17;;
2480;SDS011;57396;48.742;9.128;2023-12-14T00:37:52;6.10;;;1.83;;
2480;SDS011;57396;48.742;9.128;2023-12-14T00:40:18;5.53;;;1.90;;
2480;SDS011;57396;48.742;9.128;2023-12-14T00:42:43;2.73;;;1.90;;
2480;SDS011;57396;48.742;9.128;2023-12-14T00:45:09;3.63;;;1.87;;
2480;SDS011;57396;48.742;9.128;2023-12-14T00:47:34;3.83;;;1.90;;
2480;SDS011;57396;48.742;9.128;2023-12-14T00:50:00;2.20;;;1.90;;
2480;SDS011;57396;48.742;9.128;2023-12-14T00:52:25;4.90;;;2.20;;
2480;SDS011;57396;48.742;9.128;2023-12-14T00:54:50;5.17;;;2.20;;
2480;SDS011;57396;48.742;9.128;2023-12-14T00:57:16;2.33;;;2.00;;
2480;SDS011;57396;48.742;9.128;2023-12-14T00:59:41;2.10;;;1.90;;
2480;SDS011;57396;48.742;9.128;2023-12-14T01:02:07;2.00;;;1.50;;
2480;SDS011;57396;48.742;9.128;2023-12-14T01:04:32;4.93;;;2.10;;
2480;SDS011;57396;48.742;9.128;2023-12-14T01:06:58;5.13;;;1.67;;
2480;SDS011;57396;48.742;9.128;2023-12-14T01:09:23;2.00;;;1.57;;
2480;SDS011;57396;48.742;9.128;2023-12-14T01:11:49;1.77;;;1.27;;
2480;SDS011;57396;48.742;9.128;2023-12-14T01:14:14;2.13;;;1.90;;
2480;SDS011;57396;48.742;9.128;2023-12-14T01:16:40;3.53;;;1.83;;
2480;SDS011;57396;48.742;9.128;2023-12-14T01:19:06;2.83;;;1.67;;
2480;SDS011;57396;48.742;9.128;2023-12-14T01:21:32;4.40;;;1.60;;
2480;SDS011;57396;48.742;9.128;2023-12-14T01:23:57;2.83;;;1.50;;
2480;SDS011;57396;48.742;9.128;2023-12-14T01:26:23;2.00;;;1.90;;
2480;SDS011;57396;48.742;9.128;2023-12-14T01:28:48;2.70;;;1.50;;
2480;SDS011;57396;48.742;9.128;2023-12-14T01:31:14;3.00;;;1.40;;
2480;SDS011;57396;48.742;9.128;2023-12-14T01:33:39;3.43;;;1.87;;
2480;SDS011;57396;48.742;9.128;2023-12-14T01:36:05;4.20;;;1.43;;
2480;SDS011;57396;48.742;9.128;2023-12-14T01:38:30;3.57;;;1.53;;
2480;SDS011;57396;48.742;9.128;2023-12-14T01:40:56;5.57;;;1.50;;
2480;SDS011;57396;48.742;9.128;2023-12-14T01:43:21;3.73;;;1.40;;
2480;SDS011;57396;48.742;9.128;2023-12-14T01:45:47;4.00;;;1.60;;
2480;SDS011;57396;48.742;9.128;2023-12-14T01:48:12;3.33;;;1.53;;
2480;SDS011;57396;48.742;9.128;2023-12-14T01:50:38;6.13;;;2.60;;
2480;SDS011;57396;48.742;9.128;2023-12-14T01:53:03;2.47;;;2.27;;
2480;SDS011;57396;48.742;9.128;2023-12-14T01:55:29;3.60;;;1.73;;
2480;SDS011;57396;48.742;9.128;2023-12-14T01:57:54;3.10;;;2.00;;
2480;SDS011;57396;48.742;9.128;2023-12-14T02:03:10;2.03;;;1.80;;
2480;SDS011;57396;48.742;9.128;2023-12-14T02:05:36;3.23;;;2.10;;
2480;SDS011;57396;48.742;9.128;2023-12-14T02:08:01;2.20;;;2.00;;
2480;SDS011;57396;48.742;9.128;2023-12-14T02:10:27;2.13;;;1.93;;
2480;SDS011;57396;48.742;9.128;2023-12-14T02:12:52;3.13;;;2.17;;
2480;SDS011;57396;48.742;9.128;2023-12-14T02:15:17;2.77;;;1.80;;
2480;SDS011;57396;48.742;9.128;2023-12-14T02:17:43;2.23;;;2.03;;
2480;SDS011;57396;48.742;9.128;2023-12-14T02:20:08;2.17;;;1.60;;
2480;SDS011;57396;48.742;9.128;2023-12-14T02:25:21;2.47;;;1.60;;
2480;SDS011;57396;48.742;9.128;2023-12-14T02:27:47;3.27;;;1.53;;
2480;SDS011;57396;48.742;9.128;2023-12-14T02:30:13;1.90;;;1.50;;
2480;SDS011;57396;48.742;9.128;2023-12-14T02:32:39;1.90;;;1.37;;
2480;SDS011;57396;48.742;9.128;2023-12-14T02:35:05;2.80;;;1.40;;
2480;SDS011;57396;48.742;9.128;2023-12-14T02:37:31;2.80;;;1.47;;
2480;SDS011;57396;48.742;9.128;2023-12-14T02:39:57;3.73;;;2.63;;
2480;SDS011;57396;48.742;9.128;2023-12-14T02:42:23;8.00;;;2.40;;
2480;SDS011;57396;48.742;9.128;2023-12-14T02:44:49;2.53;;;2.30;;
2480;SDS011;57396;48.742;9.128;2023-12-14T02:47:14;2.93;;;2.60;;
2480;SDS011;57396;48.742;9.128;2023-12-14T02:49:41;4.97;;;2.03;;
2480;SDS011;57396;48.742;9.128;2023-12-14T02:52:06;4.50;;;1.80;;
2480;SDS011;57396;48.742;9.128;2023-12-14T02:54:32;7.90;;;2.60;;
2480;SDS011;57396;48.742;9.128;2023-12-14T02:56:57;3.93;;;1.90;;
2480;SDS011;57396;48.742;9.128;2023-12-14T02:59:23;3.30;;;1.80;;
2480;SDS011;57396;48.742;9.128;2023-12-14T03:01:48;1.83;;;1.50;;
2480;SDS011;57396;48.742;9.128;2023-12-14T03:04:13;2.23;;;1.60;;
2480;SDS011;57396;48.742;9.128;2023-12-14T03:06:39;2.10;;;1.90;;
2480;SDS011;57396;48.742;9.128;2023-12-14T03:09:04;2.50;;;1.87;;
2480;SDS011;57396;48.742;9.128;2023-12-14T03:11:30;3.50;;;2.50;;
2480;SDS011;57396;48.742;9.128;2023-12-14T03:13:55;2.20;;;1.87;;
2480;SDS011;57396;48.742;9.128;2023-12-14T03:16:21;4.63;;;2.47;;
2480;SDS011;57396;48.742;9.128;2023-12-14T03:18:46;3.30;;;2.20;;
2480;SDS011;57396;48.742;9.128;2023-12-14T03:21:14;2.13;;;1.80;;
2480;SDS011;57396;48.742;9.128;2023-12-14T03:23:40;3.70;;;1.70;;
2480;SDS011;57396;48.742;9.128;2023-12-14T03:26:05;4.53;;;1.80;;
2480;SDS011;57396;48.742;9.128;2023-12-14T03:28:30;2.07;;;1.80;;
2480;SDS011;57396;48.742;9.128;2023-12-14T03:30:56;2.63;;;1.80;;
2480;SDS011;57396;48.742;9.128;2023-12-14T03:33:21;2.50;;;1.70;;
2480;SDS011;57396;48.742;9.128;2023-12-14T03:35:47;10.00;;;1.70;;
2480;SDS011;57396;48.742;9.128;2023-12-14T03:38:15;4.07;;;1.93;;
2480;SDS011;57396;48.742;9.128;2023-12-14T03:40:40;2.60;;;1.97;;
2480;SDS011;57396;48.742;9.128;2023-12-14T03:43:06;2.07;;;1.77;;
2480;SDS011;57396;48.742;9.128;2023-12-14T03:45:31;1.80;;;1.70;;
2480;SDS011;57396;48.742;9.128;2023-12-14T03:47:57;4.00;;;2.00;;
2480;SDS011;57396;48.742;9.128;2023-12-14T03:50:22;1.70;;;1.60;;
2480;SDS011;57396;48.742;9.128;2023-12-14T03:52:48;2.70;;;1.70;;
2480;SDS011;57396;48.742;9.128;2023-12-14T03:55:13;4.27;;;2.00;;
2480;SDS011;57396;48.742;9.128;2023-12-14T03:57:40;2.90;;;2.00;;
2480;SDS011;57396;48.742;9.128;2023-12-14T04:00:07;2.13;;;1.93;;
2480;SDS011;57396;48.742;9.128;2023-12-14T04:02:36;4.07;;;2.10;;
2480;SDS011;57396;48.742;9.128;2023-12-14T04:05:01;2.87;;;2.30;;
2480;SDS011;57396;48.742;9.128;2023-12-14T04:07:27;3.60;;;3.30;;
2480;SDS011;57396;48.742;9.128;2023-12-14T04:09:52;3.57;;;2.43;;
2480;SDS011;57396;48.742;9.128;2023-12-14T04:12:18;4.57;;;2.70;;
2480;SDS011;57396;48.742;9.128;2023-12-14T04:14:43;3.53;;;2.60;;
2480;SDS011;57396;48.742;9.128;2023-12-14T04:17:10;4.00;;;2.50;;
2480;SDS011;57396;48.742;9.128;2023-12-14T04:19:38;3.07;;;2.83;;
2480;SDS011;57396;48.742;9.128;2023-12-14T04:22:03;5.73;;;4.57;;
2480;SDS011;57396;48.742;9.128;2023-12-14T04:24:29;7.33;;;5.50;;
2480;SDS011;57396;48.742;9.128;2023-12-14T04:26:55;6.57;;;4.57;;
2480;SDS011;57396;48.742;9.128;2023-12-14T04:29:21;4.57;;;3.67;;
2480;SDS011;57396;48.742;9.128;2023-12-14T04:31:46;4.90;;;3.70;;
2480;SDS011;57396;48.742;9.128;2023-12-14T04:34:12;3.50;;;2.80;;
2480;SDS011;57396;48.742;9.128;2023-12-14T04:36:41;2.97;;;2.70;;
2480;SDS011;57396;48.742;9.128;2023-12-14T04:39:07;3.50;;;2.90;;
2480;SDS011;57396;48.742;9.128;2023-12-14T04:41:33;3.97;;;2.90;;
2480;SDS011;57396;48.742;9.128;2023-12-14T04:43:58;5.33;;;2.63;;
2480;SDS011;57396;48.742;9.128;2023-12-14T04:46:23;3.10;;;2.60;;
2480;SDS011;57396;48.742;9.128;2023-12-14T04:48:49;3.70;;;3.20;;
2480;SDS011;57396;48.742;9.128;2023-12-14T04:51:14;4.43;;;3.17;;
2480;SDS011;57396;48.742;9.128;2023-12-14T04:53:40;4.50;;;3.70;;
2480;SDS011;57396;48.742;9.128;2023-12-14T04:56:09;3.87;;;3.57;;
2480;SDS011;57396;48.742;9.128;2023-12-14T04:58:35;3.43;;;3.13;;
2480;SDS011;57396;48.742;9.128;2023-12-14T05:01:00;4.13;;;3.50;;
2480;SDS011;57396;48.742;9.128;2023-12-14T05:03:25;6.23;;;4.40;;
2480;SDS011;57396;48.742;9.128;2023-12-14T05:05:51;6.43;;;3.30;;
2480;SDS011;57396;48.742;9.128;2023-12-14T05:08:16;5.00;;;4.50;;
2480;SDS011;57396;48.742;9.128;2023-12-14T05:10:42;4.30;;;3.90;;
2480;SDS011;57396;48.742;9.128;2023-12-14T05:13:07;4.30;;;3.90;;
2480;SDS011;57396;48.742;9.128;2023-12-14T05:15:33;4.50;;;4.07;;
2480;SDS011;57396;48.742;9.128;2023-12-14T05:17:59;5.77;;;4.47;;
2480;SDS011;57396;48.742;9.128;2023-12-14T05:20:24;6.73;;;3.67;;
2480;SDS011;57396;48.742;9.128;2023-12-14T05:22:50;6.13;;;3.80;;
2480;SDS011;57396;48.742;9.128;2023-12-14T05:25:15;8.67;;;6.17;;
2480;SDS011;57396;48.742;9.128;2023-12-14T05:27:40;39.30;;;23.40;;
2480;SDS011;57396;48.742;9.128;2023-12-14T05:30:06;164.60;;;71.73;;
2480;SDS011;57396;48.742;9.128;2023-12-14T05:32:32;146.90;;;65.73;;
2480;SDS011;57396;48.742;9.128;2023-12-14T05:34:57;95.40;;;45.53;;
2480;SDS011;57396;48.742;9.128;2023-12-14T05:37:24;62.50;;;33.60;;
2480;SDS011;57396;48.742;9.128;2023-12-14T05:39:50;25.97;;;13.73;;
2480;SDS011;57396;48.742;9.128;2023-12-14T05:42:18;6.50;;;5.00;;
2480;SDS011;57396;48.742;9.128;2023-12-14T05:44:43;13.57;;;8.00;;
2480;SDS011;57396;48.742;9.128;2023-12-14T05:47:12;19.93;;;11.20;;
2480;SDS011;57396;48.742;9.128;2023-12-14T05:49:40;54.57;;;29.30;;
2480;SDS011;57396;48.742;9.128;2023-12-14T05:52:07;57.03;;;30.30;;
2480;SDS011;57396;48.742;9.128;2023-12-14T05:54:32;79.33;;;41.57;;
2480;SDS011;57396;48.742;9.128;2023-12-14T05:56:58;76.13;;;39.23;;
2480;SDS011;57396;48.742;9.128;2023-12-14T05:59:23;87.77;;;45.80;;
2480;SDS011;57396;48.742;9.128;2023-12-14T06:01:49;170.53;;;80.10;;
2480;SDS011;57396;48.742;9.128;2023-12-14T06:04:14;261.30;;;122.40;;
2480;SDS011;57396;48.742;9.128;2023-12-14T06:06:39;252.37;;;120.77;;
2480;SDS011;57396;48.742;9.128;2023-12-14T06:09:05;173.57;;;86.07;;
2480;SDS011;57396;48.742;9.128;2023-12-14T06:11:33;140.10;;;66.90;;
2480;SDS011;57396;48.742;9.128;2023-12-14T06:13:59;116.13;;;56.93;;
2480;SDS011;57396;48.742;9.128;2023-12-14T06:16:24;102.53;;;49.33;;
2480;SDS011;57396;48.742;9.128;2023-12-14T06:18:50;79.67;;;42.87;;
2480;SDS011;57396;48.742;9.128;2023-12-14T06:21:15;34.00;;;19.00;;
2480;SDS011;57396;48.742;9.128;2023-12-14T06:23:41;9.80;;;7.87;;
2480;SDS011;57396;48.742;9.128;2023-12-14T06:26:06;10.00;;;6.90;;
2480;SDS011;57396;48.742;9.128;2023-12-14T06:28:32;9.70;;;6.70;;
2480;SDS011;57396;48.742;9.128;2023-12-14T06:30:57;9.90;;;7.50;;
2480;SDS011;57396;48.742;9.128;2023-12-14T06:33:23;10.90;;;8.00;;
2480;SDS011;57396;48.742;9.128;2023-12-14T06:35:48;8.53;;;6.50;;
2480;SDS011;57396;48.742;9.128;2023-12-14T06:38:15;6.80;;;5.93;;
2480;SDS011;57396;48.742;9.128;2023-12-14T06:40:40;7.50;;;5.80;;
2480;SDS011;57396;48.742;9.128;2023-12-14T06:43:05;5.60;;;4.70;;
2480;SDS011;57396;48.742;9.128;2023-12-14T06:45:31;5.20;;;4.70;;
2480;SDS011;57396;48.742;9.128;2023-12-14T06:47:56;8.17;;;4.57;;
2480;SDS011;57396;48.742;9.128;2023-12-14T06:50:22;29.10;;;17.07;;
2480;SDS011;57396;48.742;9.128;2023-12-14T06:52:47;77.43;;;42.70;;
2480;SDS011;57396;48.742;9.128;2023-12-14T06:55:13;55.33;;;30.67;;
2480;SDS011;57396;48.742;9.128;2023-12-14T06:57:42;31.63;;;19.23;;
2480;SDS011;57396;48.742;9.128;2023-12-14T07:00:08;31.37;;;18.80;;
2480;SDS011;57396;48.742;9.128;2023-12-14T07:02:34;46.13;;;28.00;;
2480;SDS011;57396;48.742;9.128;2023-12-14T07:05:00;45.07;;;25.73;;
2480;SDS011;57396;48.742;9.128;2023-12-14T07:07:25;26.07;;;16.73;;
2480;SDS011;57396;48.742;9.128;2023-12-14T07:09:51;11.60;;;9.27;;
2480;SDS011;57396;48.742;9.128;2023-12-14T07:12:16;46.13;;;24.97;;
2480;SDS011;57396;48.742;9.128;2023-12-14T07:14:43;16.27;;;11.00;;
2480;SDS011;57396;48.742;9.128;2023-12-14T07:17:08;14.50;;;9.80;;
2480;SDS011;57396;48.742;9.128;2023-12-14T07:19:34;12.13;;;7.80;;
2480;SDS011;57396;48.742;9.128;2023-12-14T07:22:00;11.20;;;6.80;;
2480;SDS011;57396;48.742;9.128;2023-12-14T07:24:26;14.00;;;9.17;;
2480;SDS011;57396;48.742;9.128;2023-12-14T07:26:51;15.50;;;10.43;;
2480;SDS011;57396;48.742;9.128;2023-12-14T07:29:17;14.63;;;10.40;;
2480;SDS011;57396;48.742;9.128;2023-12-14T07:31:42;12.80;;;10.33;;
2480;SDS011;57396;48.742;9.128;2023-12-14T07:34:07;9.90;;;8.77;;
2480;SDS011;57396;48.742;9.128;2023-12-14T07:36:33;12.47;;;9.60;;
2480;SDS011;57396;48.742;9.128;2023-12-14T07:38:59;15.57;;;10.10;;
2480;SDS011;57396;48.742;9.128;2023-12-14T07:41:26;8.90;;;7.60;;
2480;SDS011;57396;48.742;9.128;2023-12-14T07:43:54;11.60;;;7.80;;
2480;SDS011;57396;48.742;9.128;2023-12-14T07:46:21;8.80;;;7.13;;
2480;SDS011;57396;48.742;9.128;2023-12-14T07:48:46;9.60;;;6.37;;
2480;SDS011;57396;48.742;9.128;2023-12-14T07:51:12;7.27;;;6.30;;
2480;SDS011;57396;48.742;9.128;2023-12-14T07:53:38;11.53;;;6.33;;
2480;SDS011;57396;48.742;9.128;2023-12-14T07:56:03;8.70;;;6.27;;
2480;SDS011;57396;48.742;9.128;2023-12-14T07:58:29;9.53;;;7.70;;
2480;SDS011;57396;48.742;9.128;2023-12-14T08:00:54;9.97;;;7.80;;
2480;SDS011;57396;48.742;9.128;2023-12-14T08:03:20;13.50;;;7.43;;
2480;SDS011;57396;48.742;9.128;2023-12-14T08:05:45;13.63;;;7.43;;
2480;SDS011;57396;48.742;9.128;2023-12-14T08:08:11;10.17;;;7.13;;
2480;SDS011;57396;48.742;9.128;2023-12-14T08:10:36;16.43;;;9.90;;
2480;SDS011;57396;48.742;9.128;2023-12-14T08:13:02;25.33;;;10.40;;
2480;SDS011;57396;48.742;9.128;2023-12-14T08:15:27;19.73;;;9.27;;
2480;SDS011;57396;48.742;9.128;2023-12-14T08:17:53;14.90;;;8.10;;
2480;SDS011;57396;48.742;9.128;2023-12-14T08:20:18;12.50;;;6.47;;
2480;SDS011;57396;48.742;9.128;2023-12-14T08:22:43;7.50;;;4.57;;
2480;SDS011;57396;48.742;9.128;2023-12-14T08:25:12;10.43;;;4.00;;
2480;SDS011;57396;48.742;9.128;2023-12-14T08:27:41;7.67;;;4.87;;
2480;SDS011;57396;48.742;9.128;2023-12-14T08:30:07;9.73;;;4.90;;
2480;SDS011;57396;48.742;9.128;2023-12-14T08:32:33;6.30;;;4.83;;
2480;SDS011;57396;48.742;9.128;2023-12-14T08:34:59;8.53;;;5.13;;
2480;SDS011;57396;48.742;9.128;2023-12-14T08:37:25;10.40;;;5.00;;
2480;SDS011;57396;48.742;9.128;2023-12-14T08:39:50;5.73;;;4.60;;
2480;SDS011;57396;48.742;9.128;2023-12-14T08:42:15;4.90;;;3.87;;
2480;SDS011;57396;48.742;9.128;2023-12-14T08:44:41;8.30;;;4.60;;
2480;SDS011;57396;48.742;9.128;2023-12-14T08:47:06;5.87;;;3.93;;
2480;SDS011;57396;48.742;9.128;2023-12-14T08:49:34;7.97;;;5.10;;
2480;SDS011;57396;48.742;9.128;2023-12-14T08:52:00;6.33;;;4.83;;
2480;SDS011;57396;48.742;9.128;2023-12-14T08:54:25;4.67;;;4.27;;
2480;SDS011;57396;48.742;9.128;2023-12-14T08:56:51;3.90;;;3.47;;
2480;SDS011;57396;48.742;9.128;2023-12-14T08:59:17;5.00;;;4.10;;
2480;SDS011;57396;48.742;9.128;2023-12-14T09:01:44;5.93;;;4.80;;
2480;SDS011;57396;48.742;9.128;2023-12-14T09:04:09;11.10;;;5.40;;
2480;SDS011;57396;48.742;9.128;2023-12-14T09:06:35;6.27;;;4.80;;
2480;SDS011;57396;48.742;9.128;2023-12-14T09:09:00;6.93;;;5.00;;
2480;SDS011;57396;48.742;9.128;2023-12-14T09:11:26;6.50;;;4.73;;
2480;SDS011;57396;48.742;9.128;2023-12-14T09:13:51;7.00;;;5.33;;
2480;SDS011;57396;48.742;9.128;2023-12-14T09:16:17;8.20;;;5.10;;
2480;SDS011;57396;48.742;9.128;2023-12-14T09:18:42;6.80;;;5.17;;
2480;SDS011;57396;48.742;9.128;2023-12-14T09:21:08;8.93;;;6.60;;
2480;SDS011;57396;48.742;9.128;2023-12-14T09:23:33;9.30;;;6.57;;
2480;SDS011;57396;48.742;9.128;2023-12-14T09:25:59;6.97;;;5.73;;
2480;SDS011;57396;48.742;9.128;2023-12-14T09:28:24;7.07;;;5.87;;
2480;SDS011;57396;48.742;9.128;2023-12-14T09:30:50;7.07;;;6.20;;
2480;SDS011;57396;48.742;9.128;2023-12-14T09:33:16;7.07;;;6.37;;
2480;SDS011;57396;48.742;9.128;2023-12-14T09:35:41;6.90;;;6.20;;
2480;SDS011;57396;48.742;9.128;2023-12-14T09:38:07;9.37;;;6.10;;
2480;SDS011;57396;48.742;9.128;2023-12-14T09:40:33;7.80;;;6.60;;
2480;SDS011;57396;48.742;9.128;2023-12-14T09:43:00;8.90;;;6.90;;
2480;SDS011;57396;48.742;9.128;2023-12-14T09:45:28;8.13;;;6.77;;
2480;SDS011;57396;48.742;9.128;2023-12-14T09:47:55;8.90;;;7.27;;
2480;SDS011;57396;48.742;9.128;2023-12-14T09:50:23;18.50;;;7.30;;
2480;SDS011;57396;48.742;9.128;2023-12-14T09:52:48;8.67;;;6.27;;
2480;SDS011;57396;48.742;9.128;2023-12-14T09:55:14;8.50;;;6.73;;
2480;SDS011;57396;48.742;9.128;2023-12-14T09:57:40;7.20;;;6.00;;
2480;SDS011;57396;48.742;9.128;2023-12-14T10:00:06;7.00;;;6.20;;
2480;SDS011;57396;48.742;9.128;2023-12-14T10:02:38;8.77;;;6.70;;
2480;SDS011;57396;48.742;9.128;2023-12-14T10:05:06;8.00;;;7.20;;
2480;SDS011;57396;48.742;9.128;2023-12-14T10:07:38;8.83;;;7.37;;
2480;SDS011;57396;48.742;9.128;2023-12-14T10:10:10;7.97;;;6.80;;
2480;SDS011;57396;48.742;9.128;2023-12-14T10:12:50;7.90;;;6.70;;
2480;SDS011;57396;48.742;9.128;2023-12-14T10:15:17;10.23;;;7.27;;
2480;SDS011;57396;48.742;9.128;2023-12-14T10:17:43;8.50;;;7.07;;
2480;SDS011;57396;48.742;9.128;2023-12-14T10:20:09;8.77;;;7.53;;
2480;SDS011;57396;48.742;9.128;2023-12-14T10:22:34;8.63;;;6.60;;
2480;SDS011;57396;48.742;9.128;2023-12-14T10:25:02;7.37;;;6.33;;
2480;SDS011;57396;48.742;9.128;2023-12-14T10:27:28;10.27;;;7.00;;
2480;SDS011;57396;48.742;9.128;2023-12-14T10:29:55;7.60;;;6.23;;
2480;SDS011;57396;48.742;9.128;2023-12-14T10:32:21;6.67;;;6.07;;
2480;SDS011;57396;48.742;9.128;2023-12-14T10:34:46;6.83;;;5.93;;
2480;SDS011;57396;48.742;9.128;2023-12-14T10:37:12;9.53;;;6.30;;
2480;SDS011;57396;48.742;9.128;2023-12-14T10:39:38;7.67;;;6.07;;
2480;SDS011;57396;48.742;9.128;2023-12-14T10:42:06;8.50;;;6.03;;
2480;SDS011;57396;48.742;9.128;2023-12-14T10:44:35;9.80;;;6.70;;
2480;SDS011;57396;48.742;9.128;2023-12-14T10:47:01;5.23;;;4.53;;
2480;SDS011;57396;48.742;9.128;2023-12-14T10:49:29;6.83;;;4.63;;
2480;SDS011;57396;48.742;9.128;2023-12-14T10:51:55;6.33;;;4.73;;
2480;SDS011;57396;48.742;9.128;2023-12-14T10:54:23;6.80;;;5.37;;
2480;SDS011;57396;48.742;9.128;2023-12-14T10:56:49;10.30;;;6.13;;
2480;SDS011;57396;48.742;9.128;2023-12-14T10:59:15;6.30;;;5.27;;
2480;SDS011;57396;48.742;9.128;2023-12-14T11:01:43;5.23;;;4.63;;
2480;SDS011;57396;48.742;9.128;2023-12-14T11:04:09;5.30;;;4.57;;
2480;SDS011;57396;48.742;9.128;2023-12-14T11:06:40;6.87;;;5.57;;
2480;SDS011;57396;48.742;9.128;2023-12-14T11:09:08;6.90;;;5.53;;
2480;SDS011;57396;48.742;9.128;2023-12-14T11:14:21;9.57;;;5.67;;
2480;SDS011;57396;48.742;9.128;2023-12-14T11:16:47;6.50;;;4.80;;
2480;SDS011;57396;48.742;9.128;2023-12-14T11:24:20;7.90;;;4.20;;
2480;SDS011;57396;48.742;9.128;2023-12-14T11:26:48;4.40;;;4.03;;
2480;SDS011;57396;48.742;9.128;2023-12-14T11:29:14;5.13;;;3.70;;
2480;SDS011;57396;48.742;9.128;2023-12-14T11:31:40;5.23;;;3.93;;
2480;SDS011;57396;48.742;9.128;2023-12-14T11:34:05;10.30;;;3.53;;
2480;SDS011;57396;48.742;9.128;2023-12-14T11:36:32;8.90;;;3.73;;
2480;SDS011;57396;48.742;9.128;2023-12-14T11:38:58;4.33;;;3.00;;
2480;SDS011;57396;48.742;9.128;2023-12-14T11:41:23;8.50;;;3.67;;
2480;SDS011;57396;48.742;9.128;2023-12-14T11:43:50;4.47;;;3.60;;
2480;SDS011;57396;48.742;9.128;2023-12-14T11:46:16;3.93;;;3.40;;
2480;SDS011;57396;48.742;9.128;2023-12-14T11:48:45;5.20;;;3.20;;
2480;SDS011;57396;48.742;9.128;2023-12-14T11:51:11;5.50;;;2.93;;
2480;SDS011;57396;48.742;9.128;2023-12-14T11:53:37;3.13;;;2.20;;
2480;SDS011;57396;48.742;9.128;2023-12-14T11:56:04;12.23;;;1.90;;
2480;SDS011;57396;48.742;9.128;2023-12-14T11:58:31;5.53;;;1.87;;
2480;SDS011;57396;48.742;9.128;2023-12-14T12:01:10;2.33;;;1.70;;
2480;SDS011;57396;48.742;9.128;2023-12-14T12:03:38;3.00;;;1.60;;
2480;SDS011;57396;48.742;9.128;2023-12-14T12:06:03;1.83;;;1.33;;
2480;SDS011;57396;48.742;9.128;2023-12-14T12:08:29;2.77;;;1.60;;
2480;SDS011;57396;48.742;9.128;2023-12-14T12:10:55;5.43;;;1.60;;
2480;SDS011;57396;48.742;9.128;2023-12-14T12:13:22;2.27;;;1.60;;
2480;SDS011;57396;48.742;9.128;2023-12-14T12:15:47;2.13;;;1.60;;
2480;SDS011;57396;48.742;9.128;2023-12-14T12:18:14;2.33;;;2.13;;
2480;SDS011;57396;48.742;9.128;2023-12-14T12:20:40;2.07;;;1.80;;
2480;SDS011;57396;48.742;9.128;2023-12-14T12:23:06;2.73;;;1.47;;
2480;SDS011;57396;48.742;9.128;2023-12-14T12:25:32;2.20;;;2.00;;
2480;SDS011;57396;48.742;9.128;2023-12-14T12:27:58;3.13;;;2.33;;
2480;SDS011;57396;48.742;9.128;2023-12-14T12:30:24;1.70;;;1.60;;
2480;SDS011;57396;48.742;9.128;2023-12-14T12:32:49;3.10;;;2.17;;
2480;SDS011;57396;48.742;9.128;2023-12-14T12:35:22;2.53;;;2.10;;
2480;SDS011;57396;48.742;9.128;2023-12-14T12:37:48;2.00;;;1.90;;
2480;SDS011;57396;48.742;9.128;2023-12-14T12:40:22;2.80;;;1.67;;
2480;SDS011;57396;48.742;9.128;2023-12-14T12:42:48;2.33;;;2.13;;
2480;SDS011;57396;48.742;9.128;2023-12-14T12:45:14;2.40;;;1.90;;
2480;SDS011;57396;48.742;9.128;2023-12-14T12:47:44;4.73;;;2.17;;
2480;SDS011;57396;48.742;9.128;2023-12-14T12:50:09;2.77;;;2.10;;
2480;SDS011;57396;48.742;9.128;2023-12-14T12:52:35;3.87;;;1.93;;
2480;SDS011;57396;48.742;9.128;2023-12-14T12:55:01;2.30;;;2.10;;
2480;SDS011;57396;48.742;9.128;2023-12-14T12:57:27;2.40;;;2.20;;
2480;SDS011;57396;48.742;9.128;2023-12-14T12:59:53;3.93;;;2.17;;
2480;SDS011;57396;48.742;9.128;2023-12-14T13:02:18;2.53;;;2.00;;
2480;SDS011;57396;48.742;9.128;2023-12-14T13:04:43;8.13;;;2.00;;
2480;SDS011;57396;48.742;9.128;2023-12-14T13:07:09;3.30;;;2.37;;
2480;SDS011;57396;48.742;9.128;2023-12-14T13:09:34;2.67;;;1.77;;
2480;SDS011;57396;48.742;9.128;2023-12-14T13:12:00;3.20;;;1.60;;
2480;SDS011;57396;48.742;9.128;2023-12-14T13:14:25;3.70;;;2.57;;
2480;SDS011;57396;48.742;9.128;2023-12-14T13:16:51;3.20;;;1.87;;
2480;SDS011;57396;48.742;9.128;2023-12-14T13:19:16;3.77;;;1.60;;
2480;SDS011;57396;48.742;9.128;2023-12-14T13:21:41;2.00;;;1.80;;
2480;SDS011;57396;48.742;9.128;2023-12-14T13:24:07;2.57;;;2.00;;
2480;SDS011;57396;48.742;9.128;2023-12-14T13:26:32;3.60;;;2.10;;
2480;SDS011;57396;48.742;9.128;2023-12-14T13:28:58;2.30;;;2.10;;
2480;SDS011;57396;48.742;9.128;2023-12-14T13:31:24;2.17;;;1.97;;
2480;SDS011;57396;48.742;9.128;2023-12-14T13:33:50;6.57;;;4.30;;
2480;SDS011;57396;48.742;9.128;2023-12-14T13:36:15;5.37;;;3.93;;
2480;SDS011;57396;48.742;9.128;2023-12-14T13:38:41;2.80;;;2.60;;
2480;SDS011;57396;48.742;9.128;2023-12-14T13:41:09;3.60;;;2.10;;
2480;SDS011;57396;48.742;9.128;2023-12-14T13:43:35;2.77;;;1.90;;
2480;SDS011;57396;48.742;9.128;2023-12-14T13:46:01;2.50;;;2.30;;
2480;SDS011;57396;48.742;9.128;2023-12-14T13:48:27;3.20;;;1.90;;
2480;SDS011;57396;48.742;9.128;2023-12-14T13:50:53;3.63;;;2.77;;
2480;SDS011;57396;48.742;9.128;2023-12-14T13:53:20;2.90;;;2.60;;
2480;SDS011;57396;48.742;9.128;2023-12-14T13:55:45;4.03;;;2.73;;
2480;SDS011;57396;48.742;9.128;2023-12-14T13:58:11;2.40;;;2.20;;
2480;SDS011;57396;48.742;9.128;2023-12-14T14:00:37;4.80;;;3.30;;
2480;SDS011;57396;48.742;9.128;2023-12-14T14:03:03;3.83;;;3.10;;
2480;SDS011;57396;48.742;9.128;2023-12-14T14:05:29;4.97;;;2.80;;
2480;SDS011;57396;48.742;9.128;2023-12-14T14:07:56;6.43;;;3.50;;
2480;SDS011;57396;48.742;9.128;2023-12-14T14:10:21;6.60;;;3.67;;
2480;SDS011;57396;48.742;9.128;2023-12-14T14:12:47;5.23;;;3.43;;
2480;SDS011;57396;48.742;9.128;2023-12-14T14:15:12;5.20;;;3.90;;
2480;SDS011;57396;48.742;9.128;2023-12-14T14:17:38;9.37;;;4.80;;
2480;SDS011;57396;48.742;9.128;2023-12-14T14:20:03;5.97;;;4.17;;
2480;SDS011;57396;48.742;9.128;2023-12-14T14:22:30;5.27;;;4.77;;
2480;SDS011;57396;48.742;9.128;2023-12-14T14:24:55;8.23;;;5.27;;
2480;SDS011;57396;48.742;9.128;2023-12-14T14:27:21;5.30;;;4.80;;
2480;SDS011;57396;48.742;9.128;2023-12-14T14:29:47;8.03;;;5.63;;
2480;SDS011;57396;48.742;9.128;2023-12-14T14:32:12;5.97;;;5.03;;
2480;SDS011;57396;48.742;9.128;2023-12-14T14:34:39;7.00;;;6.07;;
2480;SDS011;57396;48.742;9.128;2023-12-14T14:37:04;7.33;;;5.83;;
2480;SDS011;57396;48.742;9.128;2023-12-14T14:39:30;8.13;;;5.87;;
2480;SDS011;57396;48.742;9.128;2023-12-14T14:41:56;6.17;;;5.57;;
2480;SDS011;57396;48.742;9.128;2023-12-14T14:44:21;7.53;;;5.37;;
2480;SDS011;57396;48.742;9.128;2023-12-14T14:46:47;6.33;;;5.03;;
2480;SDS011;57396;48.742;9.128;2023-12-14T14:49:12;4.73;;;4.33;;
2480;SDS011;57396;48.742;9.128;2023-12-14T14:51:38;5.53;;;4.60;;
2480;SDS011;57396;48.742;9.128;2023-12-14T14:54:03;9.20;;;5.07;;
2480;SDS011;57396;48.742;9.128;2023-12-14T14:56:28;5.60;;;5.00;;
2480;SDS011;57396;48.742;9.128;2023-12-14T14:58:54;8.03;;;5.63;;
2480;SDS011;57396;48.742;9.128;2023-12-14T15:01:19;6.33;;;5.37;;
2480;SDS011;57396;48.742;9.128;2023-12-14T15:03:45;7.70;;;5.70;;